Mid Fortune — ZGCG8 — position and weather

sailwx.info

Track history (hours):
 
Tides and Currents Weather Stations Pressure Air Temp Water Temp Dewpoint Dewpoint Depression Visibility Wind Speed Wind Dir Waves Ship Positions

Mid Fortune

Last reported at 2017-Sep-23 22:13 UTC. Time now 2017-Sep-25 02:50 UTC.
Position N 33°07' W 008°39'.

Length 147 m; draft 6.6 m.

Type: Ship. MMSI: 319182000.

Date/timePositionNaut miles runAvg speedWind from/ knotsBaromVisibWave heightAir tempDewpointWater temp
2017-Sep-23 22:13N 33°07' W 008°39'  
2017-Sep-18 10:57N 36°28' W 009°46'1813.5
2017-Sep-18 09:35N 36°45' W 009°52'313.2
2017-Sep-18 09:23N 36°48' W 009°52'2213.3
2017-Sep-18 07:45N 37°09' W 009°56'313.8
2017-Sep-18 07:31N 37°13' W 009°57'713.8
2017-Sep-18 07:00N 37°20' W 009°58'813.6
2017-Sep-18 06:27N 37°27' W 009°59'813.0
2017-Sep-18 05:52N 37°35' W 010°00'512.8
2017-Sep-18 05:29N 37°39' W 010°01'612.2
2017-Sep-18 05:00N 37°45' W 010°01'712.2
2017-Sep-18 04:26N 37°52' W 010°02'612.6
2017-Sep-18 03:57N 37°58' W 010°03'612.7
2017-Sep-18 03:31N 38°04' W 010°03'612.7
2017-Sep-18 03:01N 38°10' W 010°04'713.1
2017-Sep-18 02:31N 38°17' W 010°05'713.4
2017-Sep-18 02:00N 38°23' W 010°09'713.2
2017-Sep-18 01:30N 38°29' W 010°10'713.5
2017-Sep-18 01:00N 38°36' W 010°11'713.4
2017-Sep-18 00:30N 38°43' W 010°12'713.6
2017-Sep-18 00:00N 38°49' W 010°12'713.5
2017-Sep-17 23:31N 38°56' W 010°12'713.6
2017-Sep-17 23:01N 39°03' W 010°12'713.3
2017-Sep-17 22:30N 39°10' W 010°11'713.4
2017-Sep-17 22:00N 39°16' W 010°11'713.3
2017-Sep-17 21:30N 39°23' W 010°11'713.1
2017-Sep-17 20:57N 39°30' W 010°11'  
2017-Sep-15 16:33N 49°37' W 003°58'113.0
2017-Sep-15 16:30N 49°37' W 003°58'612.9
2017-Sep-15 16:00N 49°40' W 003°49'612.6
2017-Sep-15 15:30N 49°44' W 003°40'612.3
2017-Sep-15 15:00N 49°47' W 003°32'612.1
2017-Sep-15 14:31N 49°50' W 003°24'612.0
2017-Sep-15 14:00N 49°53' W 003°16'612.1
2017-Sep-15 13:30N 49°56' W 003°08'612.3
2017-Sep-15 13:00N 49°59' W 003°00'612.5
2017-Sep-15 12:30N 50°01' W 002°51'612.8
2017-Sep-15 12:00N 50°03' W 002°41'2113.6
2017-Sep-15 10:28N 50°08' W 002°10'714.7
2017-Sep-15 10:00N 50°09' W 001°59'714.8
2017-Sep-15 09:30N 50°13' W 001°49'714.3
2017-Sep-15 09:00N 50°13' W 001°38'815.1
2017-Sep-15 08:31N 50°15' W 001°27'714.9
2017-Sep-15 08:01N 50°17' W 001°15'1814.1
2017-Sep-15 06:43N 50°22' W 000°48'1312.9
2017-Sep-15 05:42N 50°26' W 000°28'212.4
2017-Sep-15 05:30N 50°27' W 000°25'612.2
2017-Sep-15 05:00N 50°28' W 000°15'612.0
2017-Sep-15 04:30N 50°29' W 000°06'611.8
2017-Sep-15 04:00N 50°31' E 000°03'611.7
2017-Sep-15 03:30N 50°32' E 000°12'611.7
2017-Sep-15 03:00N 50°34' E 000°21'611.8
2017-Sep-15 02:30N 50°36' E 000°30'612.2
2017-Sep-15 02:00N 50°39' E 000°38'612.8
2017-Sep-15 01:30N 50°42' E 000°46'713.6
2017-Sep-15 01:00N 50°46' E 000°55'713.9
2017-Sep-15 00:31N 50°50' E 001°04'714.0
2017-Sep-15 00:00N 50°55' E 001°12'714.2
2017-Sep-14 23:31N 51°00' E 001°20'713.4
2017-Sep-14 23:01N 51°04' E 001°28'713.4
2017-Sep-14 22:30N 51°08' E 001°37'612.9
2017-Sep-14 22:00N 51°12' E 001°44'612.3
2017-Sep-14 21:30N 51°18' E 001°50'612.3
2017-Sep-14 21:00N 51°23' E 001°54'612.0
2017-Sep-14 20:30N 51°29' E 001°58'612.2
2017-Sep-14 20:00N 51°33' E 002°05'612.0
2017-Sep-14 19:30N 51°38' E 002°11'38 5.9
2017-Sep-14 13:10N 51°51' E 003°08'1 5.8
2017-Sep-14 13:00N 51°50' E 003°09'4 6.4
2017-Sep-14 12:22N 51°47' E 003°13'2 4.8
2017-Sep-14 11:53N 51°47' E 003°17'2 3.8
2017-Sep-14 11:29N 51°47' E 003°19'1 1.2
2017-Sep-14 10:38N 51°46' E 003°21'0 0.0
2017-Sep-14 10:30N 51°46' E 003°21'0 0.0
2017-Sep-14 10:00N 51°46' E 003°21'0 0.0
2017-Sep-14 09:30N 51°46' E 003°21'0 0.0
2017-Sep-14 09:00N 51°46' E 003°21'0 0.0
2017-Sep-14 08:30N 51°46' E 003°21'0 0.0
2017-Sep-14 08:00N 51°46' E 003°21'0 0.0
2017-Sep-14 07:30N 51°46' E 003°21'0 0.0
2017-Sep-14 07:00N 51°46' E 003°21'0 0.0
2017-Sep-14 06:30N 51°46' E 003°21'0 0.0
2017-Sep-14 06:00N 51°46' E 003°21'0 0.0
2017-Sep-14 05:30N 51°46' E 003°21'0 0.0
2017-Sep-14 05:00N 51°46' E 003°21'0 0.0
2017-Sep-14 04:30N 51°46' E 003°21'1 1.6
2017-Sep-14 04:00N 51°46' E 003°20'4 6.1
2017-Sep-14 03:21N 51°43' E 003°15'5 9.7
2017-Sep-14 02:48N 51°39' E 003°21'310.1
2017-Sep-14 02:29N 51°36' E 003°23'510.0
2017-Sep-14 02:00N 51°32' E 003°26'5 9.7
2017-Sep-14 01:30N 51°28' E 003°31'510.1
2017-Sep-14 01:00N 51°26' E 003°39'510.9
2017-Sep-14 00:30N 51°24' E 003°46'0 0.7
2017-Sep-13 23:59N 51°23' E 003°46'0 0.0
2017-Sep-13 23:29N 51°23' E 003°46'0 0.0
2017-Sep-13 22:53N 51°23' E 003°46'0 0.0
2017-Sep-13 22:29N 51°23' E 003°46'  
Track history (hours):
 
Tides and Currents Weather Stations Pressure Air Temp Water Temp Dewpoint Dewpoint Depression Visibility Wind Speed Wind Dir Waves Ship Positions

Mid Fortune

Last reported at 2017-Sep-23 22:13 UTC. Time now 2017-Sep-25 02:50 UTC.
Position N 33°07' W 008°39'.

Length 147 m; draft 6.6 m.

Type: Ship. MMSI: 319182000.

Date/timePositionNaut miles runAvg speedWind from/ knotsBaromVisibWave heightAir tempDewpointWater temp
2017-Sep-23 22:13N 33°07' W 008°39'  
2017-Sep-18 10:57N 36°28' W 009°46'1813.5
2017-Sep-18 09:35N 36°45' W 009°52'313.2
2017-Sep-18 09:23N 36°48' W 009°52'2213.3
2017-Sep-18 07:45N 37°09' W 009°56'313.8
2017-Sep-18 07:31N 37°13' W 009°57'713.8
2017-Sep-18 07:00N 37°20' W 009°58'813.6
2017-Sep-18 06:27N 37°27' W 009°59'813.0
2017-Sep-18 05:52N 37°35' W 010°00'512.8
2017-Sep-18 05:29N 37°39' W 010°01'612.2
2017-Sep-18 05:00N 37°45' W 010°01'712.2
2017-Sep-18 04:26N 37°52' W 010°02'612.6
2017-Sep-18 03:57N 37°58' W 010°03'612.7
2017-Sep-18 03:31N 38°04' W 010°03'612.7
2017-Sep-18 03:01N 38°10' W 010°04'713.1
2017-Sep-18 02:31N 38°17' W 010°05'713.4
2017-Sep-18 02:00N 38°23' W 010°09'713.2
2017-Sep-18 01:30N 38°29' W 010°10'713.5
2017-Sep-18 01:00N 38°36' W 010°11'713.4
2017-Sep-18 00:30N 38°43' W 010°12'713.6
2017-Sep-18 00:00N 38°49' W 010°12'713.5
2017-Sep-17 23:31N 38°56' W 010°12'713.6
2017-Sep-17 23:01N 39°03' W 010°12'713.3
2017-Sep-17 22:30N 39°10' W 010°11'713.4
2017-Sep-17 22:00N 39°16' W 010°11'713.3
2017-Sep-17 21:30N 39°23' W 010°11'713.1
2017-Sep-17 20:57N 39°30' W 010°11'  
2017-Sep-15 16:33N 49°37' W 003°58'113.0
2017-Sep-15 16:30N 49°37' W 003°58'612.9
2017-Sep-15 16:00N 49°40' W 003°49'612.6
2017-Sep-15 15:30N 49°44' W 003°40'612.3
2017-Sep-15 15:00N 49°47' W 003°32'612.1
2017-Sep-15 14:31N 49°50' W 003°24'612.0
2017-Sep-15 14:00N 49°53' W 003°16'612.1
2017-Sep-15 13:30N 49°56' W 003°08'612.3
2017-Sep-15 13:00N 49°59' W 003°00'612.5
2017-Sep-15 12:30N 50°01' W 002°51'612.8
2017-Sep-15 12:00N 50°03' W 002°41'2113.6
2017-Sep-15 10:28N 50°08' W 002°10'714.7
2017-Sep-15 10:00N 50°09' W 001°59'714.8
2017-Sep-15 09:30N 50°13' W 001°49'714.3
2017-Sep-15 09:00N 50°13' W 001°38'815.1
2017-Sep-15 08:31N 50°15' W 001°27'714.9
2017-Sep-15 08:01N 50°17' W 001°15'1814.1
2017-Sep-15 06:43N 50°22' W 000°48'1312.9
2017-Sep-15 05:42N 50°26' W 000°28'212.4
2017-Sep-15 05:30N 50°27' W 000°25'612.2
2017-Sep-15 05:00N 50°28' W 000°15'612.0
2017-Sep-15 04:30N 50°29' W 000°06'611.8
2017-Sep-15 04:00N 50°31' E 000°03'611.7
2017-Sep-15 03:30N 50°32' E 000°12'611.7
2017-Sep-15 03:00N 50°34' E 000°21'611.8
2017-Sep-15 02:30N 50°36' E 000°30'612.2
2017-Sep-15 02:00N 50°39' E 000°38'612.8
2017-Sep-15 01:30N 50°42' E 000°46'713.6
2017-Sep-15 01:00N 50°46' E 000°55'713.9
2017-Sep-15 00:31N 50°50' E 001°04'714.0
2017-Sep-15 00:00N 50°55' E 001°12'714.2
2017-Sep-14 23:31N 51°00' E 001°20'713.4
2017-Sep-14 23:01N 51°04' E 001°28'713.4
2017-Sep-14 22:30N 51°08' E 001°37'612.9
2017-Sep-14 22:00N 51°12' E 001°44'612.3
2017-Sep-14 21:30N 51°18' E 001°50'612.3
2017-Sep-14 21:00N 51°23' E 001°54'612.0
2017-Sep-14 20:30N 51°29' E 001°58'612.2
2017-Sep-14 20:00N 51°33' E 002°05'612.0
2017-Sep-14 19:30N 51°38' E 002°11'38 5.9
2017-Sep-14 13:10N 51°51' E 003°08'1 5.8
2017-Sep-14 13:00N 51°50' E 003°09'4 6.4
2017-Sep-14 12:22N 51°47' E 003°13'2 4.8
2017-Sep-14 11:53N 51°47' E 003°17'2 3.8
2017-Sep-14 11:29N 51°47' E 003°19'1 1.2
2017-Sep-14 10:38N 51°46' E 003°21'0 0.0
2017-Sep-14 10:30N 51°46' E 003°21'0 0.0
2017-Sep-14 10:00N 51°46' E 003°21'0 0.0
2017-Sep-14 09:30N 51°46' E 003°21'0 0.0
2017-Sep-14 09:00N 51°46' E 003°21'0 0.0
2017-Sep-14 08:30N 51°46' E 003°21'0 0.0
2017-Sep-14 08:00N 51°46' E 003°21'0 0.0
2017-Sep-14 07:30N 51°46' E 003°21'0 0.0
2017-Sep-14 07:00N 51°46' E 003°21'0 0.0
2017-Sep-14 06:30N 51°46' E 003°21'0 0.0
2017-Sep-14 06:00N 51°46' E 003°21'0 0.0
2017-Sep-14 05:30N 51°46' E 003°21'0 0.0
2017-Sep-14 05:00N 51°46' E 003°21'0 0.0
2017-Sep-14 04:30N 51°46' E 003°21'1 1.6
2017-Sep-14 04:00N 51°46' E 003°20'4 6.1
2017-Sep-14 03:21N 51°43' E 003°15'5 9.7
2017-Sep-14 02:48N 51°39' E 003°21'310.1
2017-Sep-14 02:29N 51°36' E 003°23'510.0
2017-Sep-14 02:00N 51°32' E 003°26'5 9.7
2017-Sep-14 01:30N 51°28' E 003°31'510.1
2017-Sep-14 01:00N 51°26' E 003°39'510.9
2017-Sep-14 00:30N 51°24' E 003°46'0 0.7
2017-Sep-13 23:59N 51°23' E 003°46'0 0.0
2017-Sep-13 23:29N 51°23' E 003°46'0 0.0
2017-Sep-13 22:53N 51°23' E 003°46'0 0.0
2017-Sep-13 22:29N 51°23' E 003°46'  

Dump ship's entire track history